Flight Track Log - Related Links

Times and Time Zones

All times are in EDT time to prevent confusion due to time zone crossing. See the DAL268 flight status page for this flight to view local times or setup timezone preferences in your user account.

Time Position Orientation Groundspeed Altitude Reporting Facility
EDT Latitude Longitude Course Direction KTS MPH feet Rate Location/Type
Tue 01:00:40 AM 40.6370 -73.7840 North  Level FlightAware ADS-B
Tue 01:02:49 AM 40.6370 -73.7830 90° East 2 2 13 Level FlightAware ADS-B
Tue 01:04:44 AM 40.6380 -73.7830 360° North 2 2 15 Level FlightAware ADS-B
Tue 01:05:34 AM 40.6370 -73.7830 180° South 2 2 16 Level FlightAware ADS-B
Tue 01:07:58 AM 40.6360 -73.7830 90° East 9 10 17 Level FlightAware ADS-B
Tue 01:08:00 AM 40.5000 -73.3693 90° East  Level FlightAware Approximate
Tue 01:09:48 AM 40.6350 -73.7830 180° South 2 2  Level FlightAware ADS-B
Tue 01:11:54 AM 40.6350 -73.7840 123° Southeast 2 2 22 Level FlightAware ADS-B
Tue 01:12:00 AM 40.5124 -73.4081 123° Southeast  Level FlightAware Approximate
Tue 01:13:18 AM 40.6340 -73.7840 180° South 2 2  Level FlightAware ADS-B
Tue 01:15:00 AM 40.5421 -73.4929 114° Southeast  Level FlightAware Approximate
Tue 01:15:08 AM 40.6330 -73.7840 114° Southeast 16 18  Level FlightAware ADS-B
Tue 01:15:27 AM 40.6330 -73.7830 90° East 17 20 36 Level FlightAware ADS-B
Tue 01:15:35 AM 40.6320 -73.7830 180° South 21 24 38 Level FlightAware ADS-B
Tue 01:16:24 AM 40.6330 -73.7820 37° Northeast 14 16 38 Level FlightAware ADS-B
Tue 01:17:02 AM 40.6340 -73.7810 37° Northeast 22 25 43 Level FlightAware ADS-B
Tue 01:17:31 AM 40.6350 -73.7800 37° Northeast 28 32 47 Level FlightAware ADS-B
Tue 01:18:00 AM 40.6360 -73.7790 37° Northeast 29 33 51 Level FlightAware ADS-B
Tue 01:18:27 AM 40.6380 -73.7780 21° North 34 39 56 Level FlightAware ADS-B
Tue 01:18:44 AM 40.6380 -73.7770 90° East 33 38 61 Level FlightAware ADS-B
Tue 01:19:10 AM 40.6400 -73.7760 21° North 23 26 64 Level FlightAware ADS-B
Tue 01:19:38 AM 40.6400 -73.7750 90° East 21 24 71 Level FlightAware ADS-B
Tue 01:19:53 AM 40.6410 -73.7750 360° North 20 23 80 Level FlightAware ADS-B
Tue 01:20:09 AM 40.6420 -73.7750 360° North 22 25 85 Level FlightAware ADS-B
Tue 01:20:59 AM 40.6430 -73.7740 37° Northeast 23 26 92 Level FlightAware ADS-B
Tue 01:21:17 AM 40.6430 -73.7730 90° East 20 23 124 Level FlightAware ADS-B
Tue 01:21:44 AM 40.6440 -73.7720 37° Northeast 20 23 142 Level FlightAware ADS-B
Tue 01:22:12 AM 40.6430 -73.7700 123° Southeast 23 26 180 Level FlightAware ADS-B
Tue 01:22:39 AM 40.6420 -73.7710 217° Southwest 15 17 250 Level FlightAware ADS-B
Tue 01:22:56 AM 40.6390 -73.7730 207° Southwest 84 97 400 Level FlightAware ADS-B
Tue 01:23:24 AM 40.6230 -73.7850 210° Southwest 168 193 300 1,556 Climbing FlightAware ADS-B
Tue 01:23:50 AM 40.6060 -73.7990 212° Southwest 167 192 1,400 2,000 Climbing FlightAware ADS-B
Tue 01:24:18 AM 40.5860 -73.8140 210° Southwest 196 226 2,100 1,227 Climbing FlightAware ADS-B
Tue 01:24:34 AM 40.5700 -73.8170 188° South 230 265 2,300 828 Climbing FlightAware ADS-B
Tue 01:24:47 AM 40.5560 -73.8110 162° South 254 292 2,500 1,500 Climbing FlightAware ADS-B
Tue 01:25:02 AM 40.5420 -73.7940 137° Southeast 280 322 3,000 2,049 Climbing FlightAware ADS-B
Tue 01:25:28 AM 40.5260 -73.7520 117° Southeast 306 352 3,900 2,286 Climbing FlightAware ADS-B
Tue 01:25:44 AM 40.5230 -73.7230 98° East 317 365 4,600 2,357 Climbing FlightAware ADS-B
Tue 01:25:56 AM 40.5210 -73.7000 97° East 313 360 5,000 1,950 Climbing FlightAware ADS-B
Tue 01:26:24 AM 40.5120 -73.6470 103° East 315 362 5,900 2,400 Climbing FlightAware ADS-B
Tue 01:26:41 AM 40.5060 -73.6190 106° East 312 359 6,800 2,571 Climbing FlightAware ADS-B
Tue 01:27:06 AM 40.4950 -73.5710 107° East 324 373 7,700 2,491 Climbing FlightAware ADS-B
Tue 01:27:34 AM 40.4830 -73.5170 106° East 327 376 9,000 2,657 Climbing FlightAware ADS-B
Tue 01:28:16 AM 40.4660 -73.4360 105° East 334 384 10,800 1,884 Climbing FlightAware ADS-B
Tue 01:29:00 AM 40.4490 -73.3440 104° East 376 433 11,700 1,326 Climbing FlightAware ADS-B
Tue 01:29:42 AM 40.4310 -73.2460 104° East 408 470 12,700 1,500 Climbing FlightAware ADS-B
Tue 01:30:16 AM 40.4200 -73.1640 100° East 435 501 13,600 1,926 Climbing FlightAware ADS-B
Tue 01:31:03 AM 40.4320 -73.0420 83° East 448 516 15,300 2,258 Climbing FlightAware ADS-B
Tue 01:31:49 AM 40.4480 -72.9130 81° East 459 528 17,100 2,163 Climbing FlightAware ADS-B
Tue 01:32:29 AM 40.4640 -72.8010 79° East 465 535 18,400 1,829 Climbing FlightAware ADS-B
Tue 01:33:11 AM 40.4790 -72.6850 80° East 474 545 19,600 1,744 Climbing FlightAware ADS-B
Tue 01:33:55 AM 40.4960 -72.5560 80° East 483 556 20,900 1,643 Climbing FlightAware ADS-B
Tue 01:34:35 AM 40.5120 -72.4380 80° East 492 566 21,900 1,575 Climbing FlightAware ADS-B
Tue 01:35:15 AM 40.5270 -72.3190 81° East 499 574 23,000 1,535 Climbing FlightAware ADS-B
Tue 01:36:01 AM 40.5450 -72.1800 80° East 509 586 24,100 795 Climbing FlightAware ADS-B
Tue 01:36:38 AM 40.5580 -72.0840 80° East 509 586 24,100  Level FlightAware ADS-B
Tue 01:37:26 AM 40.5750 -71.9590 80° East 509 586 24,100  Level FlightAware ADS-B
Tue 01:38:02 AM 40.5870 -71.8660 80° East 509 586 24,100  Level FlightAware ADS-B
Tue 01:39:03 AM 40.6080 -71.7070 80° East 509 586 24,100  Level FlightAware ADS-B
Tue 01:39:39 AM 40.6210 -71.6140 80° East 509 586 24,100 3,221 Level FlightAware ADS-B
Tue 01:40:38 AM 40.6608 -71.3183 80° East 536 617 29,200 3,277 Climbing Boston Center
Tue 01:41:38 AM 40.6858 -71.1236 80° East 541 623 30,600 1,169 Climbing Boston Center
Tue 01:43:53 AM 40.7436 -70.6731 80° East 541 623 33,000 727 Climbing New York Center
Tue 01:44:56 AM 40.7644 -70.4731 82° East 541 623 33,000  Level New York Center
Tue 01:45:54 AM 40.7889 -70.2839 80° East 541 623 33,000  Level New York Center
Tue 01:46:55 AM 40.8108 -70.0919 81° East 541 623 33,000  Level New York Center
Tue 01:47:53 AM 40.8306 -69.9000 82° East 541 623 33,000  Level New York Center
Tue 01:48:54 AM 40.8519 -69.7022 82° East 541 623 33,000  Level New York Center
Tue 01:49:54 AM 40.8750 -69.5069 81° East 541 623 33,000  Level New York Center
Tue 01:50:55 AM 40.8958 -69.3144 82° East 536 617 33,000  Level New York Center
Tue 01:51:54 AM 40.9164 -69.1164 82° East 542 624 33,000  Level New York Center
Tue 01:52:55 AM 40.9364 -68.9239 82° East 542 624 33,000  Level New York Center
Tue 01:53:54 AM 40.9542 -68.7283 83° East 542 624 33,000  Level New York Center
Tue 01:54:55 AM 40.9758 -68.5272 82° East 542 624 33,000  Level New York Center
Tue 01:55:54 AM 40.9947 -68.3286 83° East 542 624 33,000  Level New York Center
Tue 01:56:54 AM 41.0156 -68.1300 82° East 542 624 33,000  Level New York Center
Tue 01:57:53 AM 41.0322 -67.9342 83° East 542 624 33,000  Level New York Center
Tue 01:58:55 AM 41.0503 -67.7325 83° East 542 624 33,000  Level New York Center
Tue 01:59:55 AM 41.0681 -67.5336 83° East 542 624 33,000  Level New York Center
Tue 02:00:54 AM 41.0853 -67.3347 83° East 542 624 33,000  Level New York Center
Tue 02:01:54 AM 41.1044 -67.1328 83° East 542 624 33,000  Level New York Center
Tue 02:02:55 AM 41.1256 -66.9361 82° East 542 624 33,000  Level New York Center
Tue 02:03:54 AM 41.1567 -66.7386 78° East 542 624 33,000  Level New York Center
Tue 02:04:22 AM 41.1167 -67.0000 78° East 548 631 33,000  Level New York Oceanic (ODAPS)
Tue 02:11:00 AM 41.3842 -65.2189 79° East 548 631 33,000  Level FlightAware Transoceanic
Tue 02:12:00 AM 41.4122 -65.0201 79° East 548 631 33,000  Level FlightAware Transoceanic
Tue 02:13:00 AM 41.4399 -64.8212 80° East 548 631 33,000  Level FlightAware Transoceanic
Tue 02:14:00 AM 41.4672 -64.6221 80° East 548 631 33,000  Level FlightAware Transoceanic
Tue 02:15:00 AM 41.4942 -64.4228 80° East 548 631 33,000  Level FlightAware Transoceanic
Tue 02:16:00 AM 41.5209 -64.2233 80° East 548 631 33,000  Level FlightAware Transoceanic
Tue 02:17:00 AM 41.5472 -64.0237 80° East 548 631 33,000  Level FlightAware Transoceanic
Tue 02:18:00 AM 41.5731 -63.8239 80° East 548 631 33,000  Level FlightAware Transoceanic
Tue 02:19:00 AM 41.5988 -63.6240 80° East 548 631 33,000  Level FlightAware Transoceanic
Tue 02:20:00 AM 41.6240 -63.4239 80° East 548 631 33,000  Level FlightAware Transoceanic
Tue 02:21:00 AM 41.6489 -63.2236 81° East 548 631 33,000  Level FlightAware Transoceanic
Tue 02:22:00 AM 41.6735 -63.0232 81° East 548 631 33,000  Level FlightAware Transoceanic
Tue 02:23:00 AM 41.6977 -62.8227 81° East 548 631 33,000  Level FlightAware Transoceanic
Tue 02:24:00 AM 41.7216 -62.6220 81° East 548 631 33,000  Level FlightAware Transoceanic
Tue 02:25:00 AM 41.7451 -62.4211 81° East 548 631 33,000  Level FlightAware Transoceanic
Tue 02:26:00 AM 41.7683 -62.2201 81° East 548 631 33,000  Level FlightAware Transoceanic
Tue 02:27:00 AM 41.7911 -62.0190 81° East 548 631 33,000  Level FlightAware Transoceanic
Tue 02:28:00 AM 41.8136 -61.8177 82° East 548 631 33,000  Level FlightAware Transoceanic
Tue 02:29:00 AM 41.8357 -61.6162 82° East 548 631 33,000  Level FlightAware Transoceanic
Tue 02:30:00 AM 41.8575 -61.4147 82° East 548 631 33,000  Level FlightAware Transoceanic
Tue 02:31:00 AM 41.8789 -61.2130 82° East 548 631 33,000  Level FlightAware Transoceanic
Tue 02:32:00 AM 41.9000 -61.0111 82° East 548 631 33,000  Level FlightAware Transoceanic
Tue 02:33:00 AM 41.9207 -60.8092 82° East 548 631 33,000  Level FlightAware Transoceanic
Tue 02:34:00 AM 41.9411 -60.6071 82° East 548 631 33,000  Level FlightAware Transoceanic
Tue 02:35:00 AM 41.9611 -60.4048 82° East 548 631 33,000  Level FlightAware Transoceanic
Tue 02:36:00 AM 41.9807 -60.2025 83° East 548 631 33,000  Level FlightAware Transoceanic
Tue 02:37:00 AM 42.0000 -60.0000 79° East 548 631 33,000  Level FlightAware Transoceanic
Tue 02:38:00 AM 42.0309 -59.7864 79° East 548 631 33,000  Level FlightAware Transoceanic
Tue 02:38:34 AM 42.0000 -60.0000 79° East 571 657 33,000  Level New York Oceanic (ODAPS)
Tue 02:39:00 AM 42.0614 -59.5727 79° East 548 631 33,000  Level FlightAware Transoceanic
Tue 02:40:00 AM 42.0915 -59.3587 79° East 548 631 33,000  Level FlightAware Transoceanic
Tue 02:41:00 AM 42.1212 -59.1445 79° East 548 631 33,000  Level FlightAware Transoceanic
Tue 02:42:00 AM 42.1505 -58.9302 80° East 548 631 33,000  Level FlightAware Transoceanic
Tue 02:43:00 AM 42.1794 -58.7156 80° East 548 631 33,000  Level FlightAware Transoceanic
Tue 02:44:00 AM 42.2312 -58.3225 80° East 571 657 33,000  Level FlightAware Transoceanic
Tue 02:45:00 AM 42.2584 -58.1119 80° East 571 657 33,000  Level FlightAware Transoceanic
Tue 02:46:00 AM 42.2852 -57.9012 80° East 571 657 33,000  Level FlightAware Transoceanic
Tue 02:47:00 AM 42.3116 -57.6903 80° East 571 657 33,000  Level FlightAware Transoceanic
Tue 02:48:00 AM 42.3376 -57.4793 81° East 571 657 33,000  Level FlightAware Transoceanic
Tue 02:49:00 AM 42.3632 -57.2680 81° East 571 657 33,000  Level FlightAware Transoceanic
Tue 02:50:00 AM 42.3885 -57.0566 81° East 571 657 33,000  Level FlightAware Transoceanic
Tue 02:51:00 AM 42.4133 -56.8450 81° East 571 657 33,000  Level FlightAware Transoceanic
Tue 02:52:00 AM 42.4378 -56.6333 81° East 571 657 33,000  Level FlightAware Transoceanic
Tue 02:53:00 AM 42.4619 -56.4214 81° East 571 657 33,000  Level FlightAware Transoceanic
Tue 02:54:00 AM 42.4856 -56.2093 81° East 571 657 33,000  Level FlightAware Transoceanic
Tue 02:55:00 AM 42.5089 -55.9971 82° East 571 657 33,000  Level FlightAware Transoceanic
Tue 02:56:00 AM 42.5318 -55.7847 82° East 571 657 33,000  Level FlightAware Transoceanic
Tue 02:57:00 AM 42.5543 -55.5721 82° East 571 657 33,000  Level FlightAware Transoceanic
Tue 02:58:00 AM 42.5764 -55.3594 82° East 571 657 33,000  Level FlightAware Transoceanic
Tue 02:59:00 AM 42.5981 -55.1466 82° East 571 657 33,000  Level FlightAware Transoceanic
Tue 03:00:00 AM 42.6194 -54.9336 82° East 571 657 33,000  Level FlightAware Transoceanic
Tue 03:01:00 AM 42.6404 -54.7204 82° East 571 657 33,000  Level FlightAware Transoceanic
Tue 03:02:00 AM 42.6609 -54.5071 83° East 571 657 33,000  Level FlightAware Transoceanic
Tue 03:03:00 AM 42.6810 -54.2937 83° East 571 657 33,000  Level FlightAware Transoceanic
Tue 03:04:00 AM 42.7008 -54.0802 83° East 571 657 33,000  Level FlightAware Transoceanic
Tue 03:05:00 AM 42.7201 -53.8665 83° East 571 657 33,000  Level FlightAware Transoceanic
Tue 03:06:00 AM 42.7391 -53.6526 83° East 571 657 33,000  Level FlightAware Transoceanic
Tue 03:07:00 AM 42.7576 -53.4387 83° East 571 657 33,000  Level FlightAware Transoceanic
Tue 03:08:00 AM 42.7758 -53.2246 83° East 571 657 33,000  Level FlightAware Transoceanic
Tue 03:09:00 AM 42.7936 -53.0104 84° East 571 657 33,000  Level FlightAware Transoceanic
Tue 03:10:00 AM 42.8109 -52.7961 84° East 571 657 33,000  Level FlightAware Transoceanic
Tue 03:11:00 AM 42.8279 -52.5816 84° East 571 657 33,000  Level FlightAware Transoceanic
Tue 03:12:00 AM 42.8444 -52.3671 84° East 571 657 33,000  Level FlightAware Transoceanic
Tue 03:13:00 AM 42.8606 -52.1524 84° East 571 657 33,000  Level FlightAware Transoceanic
Tue 03:14:00 AM 42.8763 -51.9376 84° East 571 657 33,000  Level FlightAware Transoceanic
Tue 03:15:00 AM 42.8917 -51.7227 85° East 571 657 33,000  Level FlightAware Transoceanic
Tue 03:16:00 AM 42.9066 -51.5077 85° East 571 657 33,000  Level FlightAware Transoceanic
Tue 03:17:00 AM 42.9212 -51.2926 85° East 571 657 33,000  Level FlightAware Transoceanic
Tue 03:18:00 AM 42.9353 -51.0774 85° East 571 657 33,000  Level FlightAware Transoceanic
Tue 03:19:00 AM 42.9491 -50.8621 85° East 571 657 33,000  Level FlightAware Transoceanic
Tue 03:20:00 AM 42.9624 -50.6467 85° East 571 657 33,000  Level FlightAware Transoceanic
Tue 03:21:00 AM 42.9753 -50.4312 85° East 571 657 33,000  Level FlightAware Transoceanic
Tue 03:22:00 AM 42.9879 -50.2157 86° East 571 657 33,000  Level FlightAware Transoceanic
Tue 03:23:00 AM 43.0000 -50.0000 71° East 571 657 33,000  Level FlightAware Transoceanic
Tue 03:24:00 AM 43.0514 -49.7946 71° East 571 657 33,000  Level FlightAware Transoceanic
Tue 03:25:00 AM 43.1025 -49.5888 71° East 571 657 33,000  Level FlightAware Transoceanic
Tue 03:25:11 AM 43.0000 -50.0000 71° East 585 673 33,000  Level New York Oceanic (ODAPS)
Tue 03:26:00 AM 43.1532 -49.3827 71° East 571 657 33,000  Level FlightAware Transoceanic
Tue 03:27:00 AM 43.2035 -49.1763 72° East 571 657 33,000  Level FlightAware Transoceanic
Tue 03:28:00 AM 43.2535 -48.9695 72° East 571 657 33,000  Level FlightAware Transoceanic
Tue 03:29:00 AM 43.3031 -48.7623 72° East 571 657 33,000  Level FlightAware Transoceanic
Tue 03:30:00 AM 43.3523 -48.5549 72° East 571 657 33,000  Level FlightAware Transoceanic
Tue 03:31:00 AM 43.4096 -48.3109 72° East 585 673 33,000  Level FlightAware Transoceanic
Tue 03:32:00 AM 43.4590 -48.0982 72° East 585 673 33,000  Level FlightAware Transoceanic
Tue 03:33:00 AM 43.5081 -47.8851 72° East 585 673 33,000  Level FlightAware Transoceanic
Tue 03:34:00 AM 43.5567 -47.6717 73° East 585 673 33,000  Level FlightAware Transoceanic
Tue 03:35:00 AM 43.6050 -47.4580 73° East 585 673 33,000  Level FlightAware Transoceanic
Tue 03:36:00 AM 43.6528 -47.2439 73° East 585 673 33,000  Level FlightAware Transoceanic
Tue 03:37:00 AM 43.7003 -47.0294 73° East 585 673 33,000  Level FlightAware Transoceanic
Tue 03:38:00 AM 43.7473 -46.8147 73° East 585 673 33,000  Level FlightAware Transoceanic
Tue 03:39:00 AM 43.7940 -46.5995 73° East 585 673 33,000  Level FlightAware Transoceanic
Tue 03:40:00 AM 43.8402 -46.3841 74° East 585 673 33,000  Level FlightAware Transoceanic
Tue 03:41:00 AM 43.8861 -46.1683 74° East 585 673 33,000  Level FlightAware Transoceanic
Tue 03:42:00 AM 43.9315 -45.9522 74° East 585 673 33,000  Level FlightAware Transoceanic
Tue 03:43:00 AM 43.9765 -45.7358 74° East 585 673 33,000  Level FlightAware Transoceanic
Tue 03:44:00 AM 44.0211 -45.5190 74° East 585 673 33,000  Level FlightAware Transoceanic
Tue 03:45:00 AM 44.0653 -45.3019 74° East 585 673 33,000  Level FlightAware Transoceanic
Tue 03:46:00 AM 44.1091 -45.0845 74° East 585 673 33,000  Level FlightAware Transoceanic
Tue 03:47:00 AM 44.1525 -44.8668 75° East 585 673 33,000  Level FlightAware Transoceanic
Tue 03:48:00 AM 44.1955 -44.6487 75° East 585 673 33,000  Level FlightAware Transoceanic
Tue 03:49:00 AM 44.2380 -44.4303 75° East 585 673 33,000  Level FlightAware Transoceanic
Tue 03:50:00 AM 44.2802 -44.2117 75° East 585 673 33,000  Level FlightAware Transoceanic
Tue 03:51:00 AM 44.3219 -43.9927 75° East 585 673 33,000  Level FlightAware Transoceanic
Tue 03:52:00 AM 44.3632 -43.7733 75° East 585 673 33,000  Level FlightAware Transoceanic
Tue 03:53:00 AM 44.4040 -43.5537 75° East 585 673 33,000  Level FlightAware Transoceanic
Tue 03:54:00 AM 44.4445 -43.3338 76° East 585 673 33,000  Level FlightAware Transoceanic
Tue 03:55:00 AM 44.4845 -43.1136 76° East 585 673 33,000  Level FlightAware Transoceanic
Tue 03:56:00 AM 44.5242 -42.8931 76° East 585 673 33,000  Level FlightAware Transoceanic
Tue 03:57:00 AM 44.5633 -42.6722 76° East 585 673 33,000  Level FlightAware Transoceanic
Tue 03:58:00 AM 44.6021 -42.4511 76° East 585 673 33,000  Level FlightAware Transoceanic
Tue 03:59:00 AM 44.6404 -42.2297 76° East 585 673 33,000  Level FlightAware Transoceanic
Tue 04:00:00 AM 44.6783 -42.0080 77° East 585 673 33,000  Level FlightAware Transoceanic
Tue 04:01:00 AM 44.7158 -41.7860 77° East 585 673 33,000  Level FlightAware Transoceanic
Tue 04:02:00 AM 44.7528 -41.5637 77° East 585 673 33,000  Level FlightAware Transoceanic
Tue 04:03:00 AM 44.7895 -41.3412 77° East 585 673 33,000  Level FlightAware Transoceanic
Tue 04:04:00 AM 44.8256 -41.1183 77° East 585 673 33,000  Level FlightAware Transoceanic
Tue 04:05:00 AM 44.8614 -40.8952 77° East 585 673 33,000  Level FlightAware Transoceanic
Tue 04:06:00 AM 44.8967 -40.6718 78° East 585 673 33,000  Level FlightAware Transoceanic
Tue 04:07:00 AM 44.9316 -40.4482 78° East 585 673 33,000  Level FlightAware Transoceanic
Tue 04:08:00 AM 44.9660 -40.2242 78° East 585 673 33,000  Level FlightAware Transoceanic
Tue 04:09:00 AM 45.0000 -40.0000 70° East 585 673 33,000  Level FlightAware Transoceanic
Tue 04:10:00 AM 45.0525 -39.7906 71° East 585 673 33,000  Level FlightAware Transoceanic
Tue 04:11:00 AM 45.1047 -39.5809 71° East 585 673 33,000  Level FlightAware Transoceanic
Tue 04:12:00 AM 45.1565 -39.3708 71° East 585 673 33,000  Level FlightAware Transoceanic
Tue 04:12:00 AM 45.0000 -40.0000 70° East 565 650 33,000  Level ETMS Enhanced Traffic Management System
Tue 04:13:00 AM 45.2079 -39.1603 71° East 585 673 33,000  Level FlightAware Transoceanic
Tue 04:14:00 AM 45.2589 -38.9494 71° East 585 673 33,000  Level FlightAware Transoceanic
Tue 04:15:00 AM 45.3095 -38.7381 71° East 585 673 33,000  Level FlightAware Transoceanic
Tue 04:16:00 AM 45.3597 -38.5265 71° East 585 673 33,000  Level FlightAware Transoceanic
Tue 04:17:00 AM 45.4095 -38.3145 72° East 585 673 33,000  Level FlightAware Transoceanic
Tue 04:18:00 AM 45.4095 -38.3145 72° East 565 650 33,000  Level FlightAware Transoceanic
Tue 04:19:00 AM 45.4590 -38.1021 72° East 565 650 33,000  Level FlightAware Transoceanic
Tue 04:20:00 AM 45.5080 -37.8894 72° East 565 650 33,000  Level FlightAware Transoceanic
Tue 04:21:00 AM 45.5567 -37.6762 72° East 565 650 33,000  Level FlightAware Transoceanic
Tue 04:22:00 AM 45.6049 -37.4627 72° East 565 650 33,000  Level FlightAware Transoceanic
Tue 04:23:00 AM 45.6528 -37.2489 72° East 565 650 33,000  Level FlightAware Transoceanic
Tue 04:24:00 AM 45.7002 -37.0347 72° East 565 650 33,000  Level FlightAware Transoceanic
Tue 04:25:00 AM 45.7473 -36.8201 73° East 565 650 33,000  Level FlightAware Transoceanic
Tue 04:26:00 AM 45.7939 -36.6051 73° East 565 650 33,000  Level FlightAware Transoceanic
Tue 04:27:00 AM 45.8402 -36.3898 73° East 565 650 33,000  Level FlightAware Transoceanic
Tue 04:28:00 AM 45.8860 -36.1742 73° East 565 650 33,000  Level FlightAware Transoceanic
Tue 04:29:00 AM 45.9315 -35.9582 73° East 565 650 33,000  Level FlightAware Transoceanic
Tue 04:30:00 AM 45.9765 -35.7418 73° East 565 650 33,000  Level FlightAware Transoceanic
Tue 04:31:00 AM 46.0211 -35.5251 74° East 565 650 33,000  Level FlightAware Transoceanic
Tue 04:32:00 AM 46.0653 -35.3080 74° East 565 650 33,000  Level FlightAware Transoceanic
Tue 04:33:00 AM 46.1091 -35.0906 74° East 565 650 33,000  Level FlightAware Transoceanic
Tue 04:34:00 AM 46.1525 -34.8728 74° East 565 650 33,000  Level FlightAware Transoceanic
Tue 04:35:00 AM 46.1955 -34.6548 74° East 565 650 33,000  Level FlightAware Transoceanic
Tue 04:36:00 AM 46.2380 -34.4363 74° East 565 650 33,000  Level FlightAware Transoceanic
Tue 04:37:00 AM 46.2802 -34.2175 75° East 565 650 33,000  Level FlightAware Transoceanic
Tue 04:38:00 AM 46.3219 -33.9984 75° East 565 650 33,000  Level FlightAware Transoceanic
Tue 04:39:00 AM 46.3632 -33.7790 75° East 565 650 33,000  Level FlightAware Transoceanic
Tue 04:40:00 AM 46.4041 -33.5592 75° East 565 650 33,000  Level FlightAware Transoceanic
Tue 04:41:00 AM 46.4445 -33.3391 75° East 565 650 33,000  Level FlightAware Transoceanic
Tue 04:42:00 AM 46.4846 -33.1187 75° East 565 650 33,000  Level FlightAware Transoceanic
Tue 04:43:00 AM 46.5242 -32.8979 75° East 565 650 33,000  Level FlightAware Transoceanic
Tue 04:44:00 AM 46.5634 -32.6769 76° East 565 650 33,000  Level FlightAware Transoceanic
Tue 04:45:00 AM 46.6021 -32.4555 76° East 565 650 33,000  Level FlightAware Transoceanic
Tue 04:46:00 AM 46.6404 -32.2338 76° East 565 650 33,000  Level FlightAware Transoceanic
Tue 04:47:00 AM 46.6783 -32.0118 76° East 565 650 33,000  Level FlightAware Transoceanic
Tue 04:48:00 AM 46.7158 -31.7894 76° East 565 650 33,000  Level FlightAware Transoceanic
Tue 04:49:00 AM 46.7529 -31.5668 76° East 565 650 33,000  Level FlightAware Transoceanic
Tue 04:50:00 AM 46.7895 -31.3439 77° East 565 650 33,000  Level FlightAware Transoceanic
Tue 04:51:00 AM 46.8257 -31.1206 77° East 565 650 33,000  Level FlightAware Transoceanic
Tue 04:52:00 AM 46.8614 -30.8971 77° East 565 650 33,000  Level FlightAware Transoceanic
Tue 04:53:00 AM 46.8967 -30.6733 77° East 565 650 33,000  Level FlightAware Transoceanic
Tue 04:54:00 AM 46.9316 -30.4491 77° East 565 650 33,000  Level FlightAware Transoceanic
Tue 04:55:00 AM 46.9506 -30.2389 82° East  Level Estimated
Tue 04:56:00 AM 46.9693 -30.0285 83° East  Level Estimated
Tue 04:57:00 AM 46.9876 -29.8181 83° East  Level Estimated
Tue 04:58:00 AM 47.0055 -29.6074 83° East  Level Estimated
Tue 04:59:00 AM 47.0230 -29.3966 83° East  Level Estimated
Tue 05:00:00 AM 47.0401 -29.1857 83° East  Level Estimated
Tue 05:01:00 AM 47.0569 -28.9747 83° East  Level Estimated
Tue 05:01:00 AM 47.0000 -30.0000 78° East 558 642 33,000  Level ETMS Enhanced Traffic Management System
Tue 05:02:00 AM 47.0732 -28.7635 83° East  Level Estimated
Tue 05:03:00 AM 47.0892 -28.5522 84° East  Level Estimated
Tue 05:04:00 AM 47.1048 -28.3407 84° East  Level Estimated
Tue 05:05:00 AM 47.1199 -28.1292 84° East  Level Estimated
Tue 05:06:00 AM 47.1347 -27.9175 84° East  Level Estimated
Tue 05:07:00 AM 47.2342 -28.7439 74° East  Level FlightAware Approximate
Tue 05:08:00 AM 47.2719 -28.5335 75° East  Level FlightAware Approximate
Tue 05:09:00 AM 47.3092 -28.3228 75° East  Level FlightAware Approximate
Tue 05:10:00 AM 47.3462 -28.1118 75° East  Level FlightAware Approximate
Tue 05:11:00 AM 47.3827 -27.9006 76° East  Level FlightAware Approximate
Tue 05:12:00 AM 47.4189 -27.6890 76° East  Level FlightAware Approximate
Tue 05:13:00 AM 47.4546 -27.4771 76° East  Level FlightAware Approximate
Tue 05:14:00 AM 47.4900 -27.2649 76° East  Level FlightAware Approximate
Tue 05:15:00 AM 47.5250 -27.0525 76° East  Level FlightAware Approximate
Tue 05:16:00 AM 47.5596 -26.8397 76° East  Level FlightAware Approximate
Tue 05:17:00 AM 47.5937 -26.6267 77° East  Level FlightAware Approximate
Tue 05:18:00 AM 47.6275 -26.4135 77° East  Level FlightAware Approximate
Tue 05:19:00 AM 47.6609 -26.1999 77° East  Level FlightAware Approximate
Tue 05:20:00 AM 47.6939 -25.9861 77° East  Level FlightAware Approximate
Tue 05:21:00 AM 47.7265 -25.7720 77° East  Level FlightAware Approximate
Tue 05:22:00 AM 47.7587 -25.5576 77° East  Level FlightAware Approximate
Tue 05:23:00 AM 47.7906 -25.3430 77° East  Level FlightAware Approximate
Tue 05:24:00 AM 47.8220 -25.1281 78° East  Level FlightAware Approximate
Tue 05:25:00 AM 47.8530 -24.9129 78° East  Level FlightAware Approximate
Tue 05:26:00 AM 47.8836 -24.6975 78° East  Level FlightAware Approximate
Tue 05:27:00 AM 47.9138 -24.4818 78° East  Level FlightAware Approximate
Tue 05:28:00 AM 47.9436 -24.2659 78° East  Level FlightAware Approximate
Tue 05:29:00 AM 47.9729 -24.0498 78° East  Level FlightAware Approximate
Tue 05:30:00 AM 48.0019 -23.8334 79° East  Level FlightAware Approximate
Tue 05:31:00 AM 48.0305 -23.6167 79° East  Level FlightAware Approximate
Tue 05:32:00 AM 48.0587 -23.3999 79° East  Level FlightAware Approximate
Tue 05:33:00 AM 48.0864 -23.1827 79° East  Level FlightAware Approximate
Tue 05:34:00 AM 48.1138 -22.9654 79° East  Level FlightAware Approximate
Tue 05:35:00 AM 48.1407 -22.7478 79° East  Level FlightAware Approximate
Tue 05:36:00 AM 48.1673 -22.5300 80° East  Level FlightAware Approximate
Tue 05:37:00 AM 48.1934 -22.3120 80° East  Level FlightAware Approximate
Tue 05:38:00 AM 48.2191 -22.0937 80° East  Level FlightAware Approximate
Tue 05:39:00 AM 48.2444 -21.8752 80° East  Level FlightAware Approximate
Tue 05:40:00 AM 48.2692 -21.6566 80° East  Level FlightAware Approximate
Tue 05:41:00 AM 48.2937 -21.4377 80° East  Level FlightAware Approximate
Tue 05:42:00 AM 48.3177 -21.2186 81° East  Level FlightAware Approximate
Tue 05:43:00 AM 48.3414 -20.9993 81° East  Level FlightAware Approximate
Tue 05:44:00 AM 48.3646 -20.7798 81° East  Level FlightAware Approximate
Tue 05:45:00 AM 48.3874 -20.5600 81° East  Level FlightAware Approximate
Tue 05:46:00 AM 48.4098 -20.3402 81° East  Level FlightAware Approximate
Tue 05:47:00 AM 48.4317 -20.1201 81° East  Level FlightAware Approximate
Tue 05:48:00 AM 48.4533 -19.8998 82° East  Level FlightAware Approximate
Tue 05:49:00 AM 48.4744 -19.6793 82° East  Level FlightAware Approximate
Tue 05:50:00 AM 48.4951 -19.4587 82° East  Level FlightAware Approximate
Tue 05:51:00 AM 48.5153 -19.2378 82° East  Level FlightAware Approximate
Tue 05:52:00 AM 48.5352 -19.0168 82° East  Level FlightAware Approximate
Tue 05:53:00 AM 48.5546 -18.7957 82° East  Level FlightAware Approximate
Tue 05:54:00 AM 48.5736 -18.5743 83° East  Level FlightAware Approximate
Tue 05:55:00 AM 48.5922 -18.3528 83° East  Level FlightAware Approximate
Tue 05:56:00 AM 48.6103 -18.1311 83° East  Level FlightAware Approximate
Tue 05:57:00 AM 48.6281 -17.9093 83° East  Level FlightAware Approximate
Tue 05:58:00 AM 48.6454 -17.6873 83° East  Level FlightAware Approximate
Tue 05:59:00 AM 48.6622 -17.4652 83° East  Level FlightAware Approximate
Tue 06:00:00 AM 48.6787 -17.2429 84° East  Level FlightAware Approximate
Tue 06:01:00 AM 48.6947 -17.0205 84° East  Level FlightAware Approximate
Tue 06:02:00 AM 48.7103 -16.7980 84° East  Level FlightAware Approximate
Tue 06:03:00 AM 48.7255 -16.5753 84° East  Level FlightAware Approximate
Tue 06:04:00 AM 48.7402 -16.3524 84° East  Level FlightAware Approximate
Tue 06:05:00 AM 48.7545 -16.1295 84° East  Level FlightAware Approximate
Tue 06:06:00 AM 48.7684 -15.9064 85° East  Level FlightAware Approximate
Tue 06:07:00 AM 48.7818 -15.6832 85° East  Level FlightAware Approximate
Tue 06:08:00 AM 48.7948 -15.4599 85° East  Level FlightAware Approximate
Tue 06:09:00 AM 48.8074 -15.2364 85° East  Level FlightAware Approximate
Tue 06:10:00 AM 48.8195 -15.0129 85° East  Level FlightAware Approximate
Tue 06:11:00 AM 48.8312 -14.7892 85° East  Level FlightAware Approximate
Tue 06:12:00 AM 48.8425 -14.5655 86° East  Level FlightAware Approximate
Tue 06:13:00 AM 48.8534 -14.3416 86° East  Level FlightAware Approximate
Tue 06:14:00 AM 48.8638 -14.1177 86° East  Level FlightAware Approximate
Tue 06:15:00 AM 48.8738 -13.8937 86° East  Level FlightAware Approximate
Tue 06:16:00 AM 48.8833 -13.6695 86° East  Level FlightAware Approximate
Tue 06:17:00 AM 48.8924 -13.4453 86° East  Level FlightAware Approximate
Tue 06:18:00 AM 48.9012 -13.2211 86° East  Level FlightAware Approximate
Tue 06:19:00 AM 48.9103 -12.9968 86° East  Level FlightAware Approximate
Tue 06:20:00 AM 48.9190 -12.7724 87° East  Level FlightAware Approximate
Tue 06:21:00 AM 48.9272 -12.5479 87° East  Level FlightAware Approximate
Tue 06:22:00 AM 48.9350 -12.3234 87° East  Level FlightAware Approximate
Tue 06:23:00 AM 48.9424 -12.0988 87° East  Level FlightAware Approximate
Tue 06:24:00 AM 48.9493 -11.8742 87° East  Level FlightAware Approximate
Tue 06:25:00 AM 48.9558 -11.6495 87° East  Level FlightAware Approximate
Tue 06:26:00 AM 48.9618 -11.4247 88° East  Level FlightAware Approximate
Tue 06:26:14 AM 49.0364 -8.9869 88° East 1 1 33,000  Level FlightAware UK
Tue 06:26:56 AM 49.0334 -8.8213 92° East 498 573 33,000  Level FlightAware UK
Tue 06:27:26 AM 49.0313 -8.7040 92° East 500 575 33,000  Level FlightAware UK
Tue 06:27:56 AM 49.0295 -8.5868 91° East 500 575 33,000  Level FlightAware UK
Tue 06:28:07 AM 49.0270 -8.5140 91° East 557 641 33,000  Level FlightAware ADS-B
Tue 06:28:26 AM 49.0272 -8.4695 91° East 500 575 33,000  Level FlightAware UK
Tue 06:28:47 AM 49.0240 -8.3540 91° East 555 639 33,000  Level FlightAware ADS-B
Tue 06:29:26 AM 49.0222 -8.2359 91° East 500 575 33,000  Level FlightAware UK
Tue 06:29:31 AM 49.0200 -8.1830 91° East 553 636 33,000  Level FlightAware ADS-B
Tue 06:29:56 AM 49.0198 -8.1195 91° East 498 573 33,000  Level FlightAware UK
Tue 06:30:12 AM 49.0170 -8.0260 91° East 552 635 33,000  Level FlightAware ADS-B
Tue 06:30:51 AM 49.0130 -7.8730 92° East 551 634 33,000  Level FlightAware ADS-B
Tue 06:31:26 AM 49.0118 -7.7712 92° East 498 573 33,000  Level FlightAware UK
Tue 06:31:35 AM 49.0090 -7.7030 92° East 549 632 33,000 200 Level FlightAware ADS-B
Tue 06:31:56 AM 49.0088 -7.6556 92° East 500 575 33,100 1,200 Climbing FlightAware UK
Tue 06:32:15 AM 49.0050 -7.5470 92° East 547 629 33,800 1,524 Climbing FlightAware ADS-B
Tue 06:32:59 AM 48.9870 -7.3800 99° East 548 631 34,700 1,091 Climbing FlightAware ADS-B
Tue 06:33:32 AM 48.9629 -7.2964 99° East 490 564 35,200 1,024 Climbing FlightAware UK
Tue 06:33:40 AM 48.9530 -7.2340 99° East 548 631 35,400 1,200 Climbing FlightAware ADS-B
Tue 06:34:02 AM 48.9293 -7.1927 99° East 490 564 35,800 1,171 Climbing FlightAware UK
Tue 06:34:21 AM 48.9070 -7.0910 99° East 549 632 36,200 900 Climbing FlightAware ADS-B
Tue 06:35:02 AM 48.8610 -6.9865 99° East 490 564 36,700 913 Climbing FlightAware UK
Tue 06:35:07 AM 48.8560 -6.9380 99° East 550 633 36,900 581 Climbing FlightAware ADS-B
Tue 06:35:33 AM 48.8263 -6.8829 99° East 492 566 37,000 143 Climbing FlightAware UK
Tue 06:35:49 AM 48.8070 -6.7890 99° East 550 633 37,000  Level FlightAware ADS-B
Tue 06:36:27 AM 48.7620 -6.6570 117° Southeast 548 631 37,000  Level FlightAware ADS-B
Tue 06:37:03 AM 48.7225 -6.5745 117° Southeast 490 564 37,000  Level FlightAware UK
Tue 06:37:13 AM 48.7100 -6.5010 117° Southeast 546 628 37,000  Level FlightAware ADS-B
Tue 06:37:33 AM 48.6877 -6.4727 117° Southeast 488 562 37,000  Level FlightAware UK
Tue 06:37:53 AM 48.6640 -6.3650 117° Southeast 543 625 37,000  Level FlightAware ADS-B
Tue 06:38:36 AM 48.6150 -6.2240 118° Southeast 542 624 37,000  Level FlightAware ADS-B
Tue 06:38:51 AM 48.5976 -6.2102 118° Southeast 486 559 37,000  Level FlightAware UK
Tue 06:39:17 AM 48.5670 -6.0840 118° Southeast 541 623 37,000  Level FlightAware ADS-B
Tue 06:39:57 AM 48.5211 -5.9895 118° Southeast 486 559 37,000  Level FlightAware UK
Tue 06:39:57 AM 48.5220 -5.9520 118° Southeast 541 623 37,000  Level FlightAware ADS-B
Tue 06:40:27 AM 48.4863 -5.8896 118° Southeast 490 564 37,000  Level FlightAware UK
Tue 06:40:40 AM 48.4850 -5.8450 118° Southeast 540 621 37,000  Level FlightAware ADS-B
Tue 06:40:57 AM 48.4512 -5.7892 118° Southeast 486 559 37,000  Level FlightAware UK
Tue 06:41:22 AM 48.4220 -5.6660 118° Southeast 539 620 37,000  Level FlightAware ADS-B
Tue 06:42:07 AM 48.3710 -5.5190 118° Southeast 539 620 37,000  Level FlightAware ADS-B
Tue 06:42:46 AM 48.3260 -5.3910 118° Southeast 539 620 37,000  Level FlightAware ADS-B
Tue 06:43:30 AM 48.2730 -5.2420 118° Southeast 540 621 37,000  Level FlightAware ADS-B
Tue 06:44:03 AM 48.2331 -5.1733 118° Southeast 486 559 37,000  Level FlightAware UK
Tue 06:44:10 AM 48.2260 -5.1110 118° Southeast 540 621 37,000  Level FlightAware ADS-B
Tue 06:44:56 AM 48.1710 -4.9580 118° Southeast 539 620 37,000  Level FlightAware ADS-B
Tue 06:45:34 AM 48.1260 -4.8340 118° Southeast 537 618 37,000  Level FlightAware ADS-B
Tue 06:46:20 AM 48.0730 -4.6850 118° Southeast 536 617 37,000  Level FlightAware ADS-B
Tue 06:47:00 AM 48.0260 -4.5550 118° Southeast 536 617 37,000  Level FlightAware ADS-B
Tue 06:47:44 AM 47.9730 -4.4130 119° Southeast 535 616 37,000  Level FlightAware ADS-B
Tue 06:48:24 AM 47.9250 -4.2820 119° Southeast 533 613 37,000  Level FlightAware ADS-B
Tue 06:49:06 AM 47.8760 -4.1480 119° Southeast 531 611 37,000  Level FlightAware ADS-B
Tue 06:49:48 AM 47.8270 -4.0160 119° Southeast 529 609 37,000  Level FlightAware ADS-B
Tue 06:50:30 AM 47.7770 -3.8800 119° Southeast 527 606 37,000  Level FlightAware ADS-B
Tue 06:51:10 AM 47.7290 -3.7530 119° Southeast 525 604 37,000  Level FlightAware ADS-B
Tue 06:51:56 AM 47.6750 -3.6090 119° Southeast 523 602 37,000  Level FlightAware ADS-B
Tue 06:52:36 AM 47.6280 -3.4840 119° Southeast 521 600 37,000  Level FlightAware ADS-B
Tue 06:53:14 AM 47.5830 -3.3650 119° Southeast 520 598 37,000  Level FlightAware ADS-B
Tue 06:54:00 AM 47.5300 -3.2240 119° Southeast 519 597 37,000  Level FlightAware ADS-B
Tue 06:54:42 AM 47.4800 -3.0940 120° Southeast 520 598 37,000  Level FlightAware ADS-B
Tue 06:55:54 AM 47.3950 -2.8740 120° Southeast 518 596 37,000  Level FlightAware ADS-B
Tue 06:56:34 AM 47.3470 -2.7510 120° Southeast 518 596 37,000  Level FlightAware ADS-B
Tue 06:57:18 AM 47.2940 -2.6140 120° Southeast 519 597 37,000  Level FlightAware ADS-B
Tue 06:57:58 AM 47.2470 -2.4920 120° Southeast 519 597 37,000  Level FlightAware ADS-B
Tue 06:58:38 AM 47.1990 -2.3700 120° Southeast 519 597 37,000  Level FlightAware ADS-B
Tue 06:59:22 AM 47.1460 -2.2370 120° Southeast 520 598 37,000  Level FlightAware ADS-B
Tue 07:00:02 AM 47.0980 -2.1150 120° Southeast 521 600 37,000  Level FlightAware ADS-B
Tue 07:00:44 AM 47.0480 -1.9900 120° Southeast 522 601 37,000  Level FlightAware ADS-B
Tue 07:01:24 AM 46.9970 -1.8640 121° Southeast 523 602 37,000  Level FlightAware ADS-B
Tue 07:02:12 AM 46.9380 -1.7180 121° Southeast 523 602 37,000  Level FlightAware ADS-B
Tue 07:02:52 AM 46.8880 -1.5970 121° Southeast 524 603 37,000  Level FlightAware ADS-B
Tue 07:03:36 AM 46.8320 -1.4610 121° Southeast 526 605 37,000  Level FlightAware ADS-B
Tue 07:04:16 AM 46.7810 -1.3380 121° Southeast 526 605 37,000  Level FlightAware ADS-B
Tue 07:05:00 AM 46.7280 -1.2080 121° Southeast 525 604 37,000  Level FlightAware ADS-B
Tue 07:05:55 AM 46.6700 -1.0690 121° Southeast 526 605 37,000  Level FlightAware ADS-B
Tue 07:06:38 AM 46.6150 -0.9040 116° Southeast 525 604 37,000  Level FlightAware ADS-B
Tue 07:07:12 AM 46.5970 -0.7870 103° East 526 605 37,000  Level FlightAware ADS-B
Tue 07:08:03 AM 46.5750 -0.6370 102° East 526 605 37,000  Level FlightAware ADS-B
Tue 07:08:39 AM 46.5590 -0.5310 102° East 526 605 37,000  Level FlightAware ADS-B
Tue 07:09:19 AM 46.5280 -0.3570 104° East 526 605 37,000  Level FlightAware ADS-B
Tue 07:10:16 AM 46.5010 -0.1740 102° East 527 606 37,000  Level FlightAware ADS-B
Tue 07:10:56 AM 46.4790 -0.0220 102° East 533 613 37,000  Level FlightAware ADS-B
Tue 07:11:50 AM 46.4490 0.1730 103° East 535 616 37,000  Level FlightAware ADS-B
Tue 07:12:31 AM 46.4280 0.3110 102° East 537 618 37,000  Level FlightAware ADS-B
Tue 07:13:16 AM 46.4030 0.4740 102° East 536 617 37,000  Level FlightAware ADS-B
Tue 07:13:51 AM 46.3850 0.5870 103° East 536 617 37,000  Level FlightAware ADS-B
Tue 07:14:46 AM 46.3550 0.7770 103° East 536 617 37,000  Level FlightAware ADS-B
Tue 07:15:37 AM 46.3270 0.9570 103° East 533 613 37,000  Level FlightAware ADS-B
Tue 07:16:15 AM 46.3050 1.0930 103° East 529 609 37,000  Level FlightAware ADS-B
Tue 07:16:56 AM 46.2810 1.2420 103° East 529 609 37,000  Level FlightAware ADS-B
Tue 07:17:40 AM 46.2570 1.3840 104° East 526 605 37,000  Level FlightAware ADS-B
Tue 07:18:20 AM 46.2360 1.5170 103° East 528 608 37,000  Level FlightAware ADS-B
Tue 07:19:06 AM 46.2080 1.6860 103° East 527 606 37,000  Level FlightAware ADS-B
Tue 07:19:34 AM 46.1917 1.7824 104° East 527 606 37,000  Level FlightAware ADS-B
Tue 07:20:08 AM 46.1720 1.8990 104° East 528 608 37,000  Level FlightAware ADS-B
Tue 07:20:52 AM 46.1462 2.0511 104° East 527 606 37,000  Level FlightAware ADS-B
Tue 07:21:39 AM 46.1188 2.2103 104° East 527 606 37,000  Level FlightAware ADS-B
Tue 07:22:16 AM 46.0970 2.3360 104° East 527 606 37,000  Level FlightAware ADS-B
Tue 07:22:58 AM 46.0720 2.4760 104° East 527 606 37,000  Level FlightAware ADS-B
Tue 07:23:38 AM 46.0480 2.6150 104° East 527 606 37,000  Level FlightAware ADS-B
Tue 07:24:07 AM 46.0305 2.7138 104° East 528 608 37,000  Level FlightAware ADS-B
Tue 07:25:02 AM 45.9800 2.8880 113° Southeast 539 620 37,000  Level FlightAware ADS-B
Tue 07:25:45 AM 45.9160 3.0120 127° Southeast 541 623 37,000  Level FlightAware ADS-B
Tue 07:26:24 AM 45.8580 3.1260 126° Southeast 541 623 37,000  Level FlightAware ADS-B
Tue 07:27:10 AM 45.7870 3.2530 129° Southeast 543 625 37,000  Level FlightAware ADS-B
Tue 07:27:50 AM 45.7220 3.3690 129° Southeast 544 626 37,000  Level FlightAware ADS-B
Tue 07:28:30 AM 45.6610 3.4780 129° Southeast 545 627 37,000  Level FlightAware ADS-B
Tue 07:29:09 AM 45.6020 3.5840 128° Southeast 545 627 37,000  Level FlightAware ADS-B
Tue 07:30:13 AM 45.5110 3.7480 128° Southeast 547 629 37,000  Level FlightAware ADS-B
Tue 07:31:00 AM 45.4350 3.8810 129° Southeast 548 631 37,000  Level FlightAware ADS-B
Tue 07:31:34 AM 45.6300 3.5330 309° West 37,000  Level FlightAware ADS-B
Tue 07:32:46 AM 45.2700 4.1710 129° Southeast 545 627 37,000  Level FlightAware ADS-B
Tue 07:33:22 AM 45.2220 4.2570 128° Southeast 545 627 37,000  Level FlightAware ADS-B
Tue 07:34:06 AM 45.1260 4.4170 130° Southeast 546 628 37,000  Level FlightAware ADS-B
Tue 07:34:46 AM 45.0590 4.5330 129° Southeast 546 628 37,000  Level FlightAware ADS-B
Tue 07:35:31 AM 44.9880 4.6550 129° Southeast 547 629 37,000  Level FlightAware ADS-B
Tue 07:36:11 AM 44.9230 4.7680 129° Southeast 545 627 37,000  Level FlightAware ADS-B
Tue 07:36:56 AM 44.8500 4.8930 129° Southeast 545 627 37,000  Level FlightAware ADS-B
Tue 07:37:36 AM 44.7870 5.0010 129° Southeast 544 626 37,000  Level FlightAware ADS-B
Tue 07:38:16 AM 44.7200 5.1150 130° Southeast 544 626 37,000  Level FlightAware ADS-B
Tue 07:39:01 AM 44.6500 5.2350 129° Southeast 542 624 37,000  Level FlightAware ADS-B
Tue 07:39:41 AM 44.5840 5.3480 129° Southeast 541 623 37,000  Level FlightAware ADS-B
Tue 07:40:21 AM 44.5240 5.4510 129° Southeast 544 626 37,000  Level FlightAware ADS-B
Tue 07:41:04 AM 44.4530 5.5740 129° Southeast 543 625 37,000  Level FlightAware ADS-B
Tue 07:41:49 AM 44.3820 5.6950 129° Southeast 541 623 37,000  Level FlightAware ADS-B
Tue 07:42:34 AM 44.3100 5.8170 129° Southeast 541 623 37,000  Level FlightAware ADS-B
Tue 07:43:14 AM 44.2520 5.9270 126° Southeast 539 620 37,000  Level FlightAware ADS-B
Tue 07:44:06 AM 44.1790 6.0800 124° Southeast 533 613 37,000  Level FlightAware ADS-B
Tue 07:44:51 AM 44.1150 6.2100 124° Southeast 538 619 37,000  Level FlightAware ADS-B
Tue 07:45:46 AM 44.0380 6.3660 124° Southeast 537 618 37,000  Level FlightAware ADS-B
Tue 07:46:26 AM 43.9820 6.4770 125° Southeast 534 615 37,000  Level FlightAware ADS-B
Tue 07:47:11 AM 43.9230 6.5930 125° Southeast 534 615 37,000  Level FlightAware ADS-B
Tue 07:47:56 AM 43.8530 6.7320 125° Southeast 534 615 37,000  Level FlightAware ADS-B
Tue 07:48:52 AM 43.7750 6.8890 124° Southeast 532 612 37,000  Level FlightAware ADS-B
Tue 07:49:32 AM 43.7270 6.9930 123° Southeast 532 612 37,000  Level FlightAware ADS-B
Tue 07:50:09 AM 43.6780 7.1030 122° Southeast 531 611 37,000  Level FlightAware ADS-B
Tue 07:50:54 AM 43.6180 7.2400 121° Southeast 533 613 37,000  Level FlightAware ADS-B
Tue 07:51:34 AM 43.5680 7.3540 121° Southeast 532 612 37,000  Level FlightAware ADS-B
Tue 07:52:19 AM 43.5090 7.4850 122° Southeast 531 611 37,000  Level FlightAware ADS-B
Tue 07:53:04 AM 43.4510 7.6120 122° Southeast 531 611 37,000  Level FlightAware ADS-B
Tue 07:53:39 AM 43.4040 7.7170 122° Southeast 532 612 37,000  Level FlightAware ADS-B
Tue 07:54:24 AM 43.3460 7.8430 122° Southeast 534 615 37,000  Level FlightAware ADS-B
Tue 07:55:05 AM 43.2910 7.9650 122° Southeast 536 617 37,000  Level FlightAware ADS-B
Tue 07:55:50 AM 43.2320 8.0940 122° Southeast 536 617 37,000  Level FlightAware ADS-B
Tue 07:56:26 AM 43.1850 8.1980 122° Southeast 535 616 37,000  Level FlightAware ADS-B
Tue 07:57:16 AM 43.1180 8.3430 122° Southeast 536 617 37,000  Level FlightAware ADS-B
Tue 07:57:58 AM 43.0630 8.4620 122° Southeast 536 617 37,000  Level FlightAware ADS-B
Tue 07:58:38 AM 43.0110 8.5740 122° Southeast 537 618 37,000  Level FlightAware ADS-B
Tue 07:59:20 AM 42.9550 8.6950 122° Southeast 538 619 37,000  Level FlightAware ADS-B
Tue 08:00:01 AM 42.9000 8.8120 123° Southeast 539 620 37,000  Level FlightAware ADS-B
Tue 08:00:45 AM 42.8450 8.9290 123° Southeast 538 619 37,000  Level FlightAware ADS-B
Tue 08:01:25 AM 42.7870 9.0540 122° Southeast 539 620 37,000  Level FlightAware ADS-B
Tue 08:02:09 AM 42.7280 9.1790 123° Southeast 539 620 37,000  Level FlightAware ADS-B
Tue 08:02:51 AM 42.6730 9.2940 123° Southeast 541 623 37,000  Level FlightAware ADS-B
Tue 08:03:32 AM 42.6210 9.4040 123° Southeast 543 625 37,000  Level FlightAware ADS-B
Tue 08:04:10 AM 42.5750 9.5160 119° Southeast 542 624 37,000  Level FlightAware ADS-B
Tue 08:04:55 AM 42.5330 9.6610 111° Southeast 545 627 37,000  Level FlightAware ADS-B
Tue 08:05:39 AM 42.4930 9.7990 111° Southeast 546 628 37,000  Level FlightAware ADS-B
Tue 08:06:21 AM 42.4540 9.9440 110° East 546 628 37,000  Level FlightAware ADS-B
Tue 08:07:02 AM 42.4210 10.0680 110° East 544 626 37,000  Level FlightAware ADS-B
Tue 08:07:39 AM 42.3880 10.1890 110° East 543 625 37,000  Level FlightAware ADS-B
Tue 08:08:29 AM 42.3440 10.3500 110° East 543 625 37,000  Level FlightAware ADS-B
Tue 08:09:06 AM 42.3100 10.4730 110° East 543 625 37,000  Level FlightAware ADS-B
Tue 08:09:50 AM 42.2720 10.6130 110° East 542 624 37,000  Level FlightAware ADS-B
Tue 08:10:42 AM 42.2270 10.7770 110° East 536 617 37,000  Level FlightAware ADS-B
Tue 08:10:57 AM 42.2140 10.8230 111° Southeast 536 617 37,000  Level FlightAware ADS-B
Tue 08:11:55 AM 42.1630 11.0060 111° Southeast 537 618 37,000  Level FlightAware ADS-B
Tue 08:12:40 AM 42.1230 11.1490 111° Southeast 540 621 37,000  Level FlightAware ADS-B
Tue 08:13:19 AM 42.0900 11.2690 110° East 543 625 37,000  Level FlightAware ADS-B
Tue 08:13:59 AM 42.0510 11.3920 113° Southeast 544 626 37,000  Level FlightAware ADS-B
Tue 08:14:44 AM 41.9840 11.5120 127° Southeast 548 631 37,000  Level FlightAware ADS-B
Tue 08:15:19 AM 41.9250 11.5970 133° Southeast 548 631 37,000  Level FlightAware ADS-B
Tue 08:16:04 AM 41.8450 11.7090 134° Southeast 550 633 37,000  Level FlightAware ADS-B
Tue 08:16:44 AM 41.7780 11.8030 134° Southeast 550 633 37,000  Level FlightAware ADS-B
Tue 08:17:34 AM 41.6860 11.9300 134° Southeast 553 636 37,000  Level FlightAware ADS-B
Tue 08:18:29 AM 41.5870 12.0690 134° Southeast 554 638 37,000  Level FlightAware ADS-B
Tue 08:19:04 AM 41.5250 12.1550 134° Southeast 555 639 37,000  Level FlightAware ADS-B
Tue 08:20:04 AM 41.4190 12.3010 134° Southeast 557 641 37,000  Level FlightAware ADS-B
Tue 08:20:49 AM 41.3380 12.4130 134° Southeast 558 642 37,000  Level FlightAware ADS-B
Tue 08:21:29 AM 41.2660 12.5140 133° Southeast 558 642 37,000  Level FlightAware ADS-B
Tue 08:22:09 AM 41.1960 12.6100 134° Southeast 557 641 37,000  Level FlightAware ADS-B
Tue 08:22:49 AM 41.1240 12.7100 134° Southeast 556 640 37,000  Level FlightAware ADS-B
Tue 08:23:34 AM 41.0430 12.8200 134° Southeast 555 639 37,000  Level FlightAware ADS-B
Tue 08:24:14 AM 40.9750 12.9120 134° Southeast 555 639 37,000  Level FlightAware ADS-B
Tue 08:24:54 AM 40.9100 13.0240 127° Southeast 554 638 37,000  Level FlightAware ADS-B
Tue 08:25:33 AM 40.8890 13.0870 114° Southeast 550 633 37,000  Level FlightAware ADS-B
Tue 08:26:18 AM 40.8410 13.2920 107° East 547 629 37,000  Level FlightAware ADS-B
Tue 08:26:54 AM 40.8140 13.4090 107° East 546 628 37,000  Level FlightAware ADS-B
Tue 08:27:39 AM 40.7810 13.5530 107° East 545 627 37,000  Level FlightAware ADS-B
Tue 08:28:22 AM 40.7490 13.6890 107° East 542 624 37,000  Level FlightAware ADS-B
Tue 08:29:00 AM 40.7210 13.8050 108° East 542 624 37,000  Level FlightAware ADS-B
Tue 08:29:44 AM 40.6880 13.9450 107° East 541 623 37,000  Level FlightAware ADS-B
Tue 08:30:28 AM 40.6550 14.0830 107° East 539 620 37,000  Level FlightAware ADS-B
Tue 08:31:06 AM 40.6260 14.2010 108° East 540 621 37,000  Level FlightAware ADS-B
Tue 08:31:54 AM 40.5860 14.3520 109° East 541 623 37,000  Level FlightAware ADS-B
Tue 08:32:34 AM 40.5360 14.4630 121° Southeast 545 627 37,000  Level FlightAware ADS-B
Tue 08:33:12 AM 40.4790 14.5670 126° Southeast 544 626 37,000  Level FlightAware ADS-B
Tue 08:33:58 AM 40.4110 14.6890 126° Southeast 545 627 37,000  Level FlightAware ADS-B
Tue 08:34:38 AM 40.3520 14.7940 126° Southeast 544 626 37,000  Level FlightAware ADS-B
Tue 08:35:14 AM 40.2990 14.8890 126° Southeast 545 627 37,000  Level FlightAware ADS-B
Tue 08:36:02 AM 40.2270 15.0170 126° Southeast 545 627 37,000  Level FlightAware ADS-B
Tue 08:36:42 AM 40.1660 15.1260 126° Southeast 544 626 37,000  Level FlightAware ADS-B
Tue 08:37:28 AM 40.0980 15.2460 127° Southeast 544 626 37,000  Level FlightAware ADS-B
Tue 08:38:12 AM 40.0310 15.3640 127° Southeast 544 626 37,000  Level FlightAware ADS-B
Tue 08:38:52 AM 39.9720 15.4690 126° Southeast 544 626 37,000  Level FlightAware ADS-B
Tue 08:39:32 AM 39.9110 15.5750 127° Southeast 543 625 37,000  Level FlightAware ADS-B
Tue 08:40:16 AM 39.8460 15.6890 127° Southeast 543 625 37,000  Level FlightAware ADS-B
Tue 08:41:00 AM 39.7800 15.8040 127° Southeast 541 623 37,000  Level FlightAware ADS-B
Tue 08:41:40 AM 39.7190 15.9090 127° Southeast 542 624 37,000  Level FlightAware ADS-B
Tue 08:42:20 AM 39.6650 16.0170 123° Southeast 542 624 37,000  Level FlightAware ADS-B
Tue 08:43:04 AM 39.6160 16.1450 116° Southeast 543 625 37,000  Level FlightAware ADS-B
Tue 08:43:46 AM 39.5730 16.2680 114° Southeast 541 623 37,000  Level FlightAware ADS-B
Tue 08:44:26 AM 39.5310 16.3860 115° Southeast 539 620 37,000  Level FlightAware ADS-B
Tue 08:45:06 AM 39.4880 16.5040 115° Southeast 539 620 37,000  Level FlightAware ADS-B
Tue 08:45:50 AM 39.4410 16.6310 116° Southeast 539 620 37,000  Level FlightAware ADS-B
Tue 08:46:34 AM 39.3930 16.7590 116° Southeast 540 621 37,000  Level FlightAware ADS-B
Tue 08:47:16 AM 39.3480 16.8800 116° Southeast 540 621 37,000  Level FlightAware ADS-B
Tue 08:47:54 AM 39.3080 16.9880 116° Southeast 540 621 37,000  Level FlightAware ADS-B
Tue 08:48:41 AM 39.2700 17.0910 115° Southeast 538 619 37,000  Level FlightAware ADS-B
Tue 08:49:21 AM 39.2260 17.2090 116° Southeast 536 617 37,000  Level FlightAware ADS-B
Tue 08:49:58 AM 39.1890 17.3100 115° Southeast 536 617 37,000  Level FlightAware ADS-B
Tue 08:50:46 AM 39.1340 17.4560 116° Southeast 536 617 37,000  Level FlightAware ADS-B
Tue 08:51:28 AM 39.0900 17.5730 116° Southeast 537 618 37,000  Level FlightAware ADS-B
Tue 08:52:03 AM 39.0500 17.6790 116° Southeast 540 621 37,000  Level FlightAware ADS-B
Tue 08:52:44 AM 39.0090 17.7850 116° Southeast 540 621 37,000  Level FlightAware ADS-B
Tue 08:53:36 AM 38.9560 17.9250 116° Southeast 538 619 37,000  Level FlightAware ADS-B
Tue 08:54:12 AM 38.9050 18.0570 116° Southeast 540 621 37,000  Level FlightAware ADS-B
Tue 08:54:56 AM 38.8600 18.1730 116° Southeast 540 621 37,000  Level FlightAware ADS-B
Tue 08:55:37 AM 38.8220 18.2730 116° Southeast 541 623 37,000  Level FlightAware ADS-B
Tue 08:56:21 AM 38.7630 18.4240 117° Southeast 538 619 37,000  Level FlightAware ADS-B
Tue 08:57:01 AM 38.7190 18.5360 117° Southeast 537 618 37,000  Level FlightAware ADS-B
Tue 08:57:41 AM 38.6740 18.6530 116° Southeast 536 617 37,000  Level FlightAware ADS-B
Tue 08:58:27 AM 38.6250 18.7760 117° Southeast 535 616 37,000  Level FlightAware ADS-B
Tue 08:59:05 AM 38.5890 18.8680 117° Southeast 534 615 37,000  Level FlightAware ADS-B
Tue 08:59:45 AM 38.5470 18.9820 115° Southeast 536 617 37,000  Level FlightAware ADS-B
Tue 09:00:35 AM 38.5050 19.1060 113° Southeast 536 617 37,000  Level FlightAware ADS-B
Tue 09:01:44 AM 38.4410 19.3330 110° East 536 617 37,000  Level FlightAware ADS-B
Tue 09:02:24 AM 38.4050 19.4540 111° Southeast 536 617 37,000  Level FlightAware ADS-B
Tue 09:03:01 AM 38.3670 19.5770 111° Southeast 535 616 37,000  Level FlightAware ADS-B
Tue 09:03:49 AM 38.3250 19.7170 111° Southeast 534 615 37,000  Level FlightAware ADS-B
Tue 09:04:30 AM 38.2880 19.8370 111° Southeast 534 615 37,000  Level FlightAware ADS-B
Tue 09:05:10 AM 38.2520 19.9530 112° Southeast 534 615 37,000  Level FlightAware ADS-B
Tue 09:05:48 AM 38.2080 20.0970 111° Southeast 535 616 37,000  Level FlightAware ADS-B
Tue 09:06:40 AM 38.1610 20.2510 111° Southeast 536 617 37,000  Level FlightAware ADS-B
Tue 09:07:16 AM 38.1280 20.3540 112° Southeast 536 617 37,000  Level FlightAware ADS-B
Tue 09:08:02 AM 38.0870 20.4880 111° Southeast 537 618 37,000  Level FlightAware ADS-B
Tue 09:08:46 AM 38.0460 20.6180 112° Southeast 538 619 37,000  Level FlightAware ADS-B
Tue 09:09:22 AM 38.0130 20.7210 112° Southeast 539 620 37,000  Level FlightAware ADS-B
Tue 09:10:01 AM 37.9760 20.8370 112° Southeast 536 617 37,000  Level FlightAware ADS-B
Tue 09:10:57 AM 37.9390 20.9540 112° Southeast 540 621 37,000  Level FlightAware ADS-B
Tue 09:11:47 AM 37.8920 21.1000 112° Southeast 538 619 37,000  Level FlightAware ADS-B
Tue 09:12:28 AM 37.8380 21.2660 112° Southeast 536 617 37,000  Level FlightAware ADS-B
Tue 09:13:06 AM 37.8010 21.3790 112° Southeast 536 617 37,000  Level FlightAware ADS-B
Tue 09:13:50 AM 37.7600 21.5060 112° Southeast 538 619 37,000  Level FlightAware ADS-B
Tue 09:14:36 AM 37.7180 21.6360 112° Southeast 539 620 37,000  Level FlightAware ADS-B
Tue 09:15:32 AM 37.6630 21.8030 113° Southeast 539 620 37,000  Level FlightAware ADS-B
Tue 09:16:10 AM 37.6270 21.9130 112° Southeast 540 621 37,000  Level FlightAware ADS-B
Tue 09:16:54 AM 37.5840 22.0420 113° Southeast 539 620 37,000  Level FlightAware ADS-B
Tue 09:17:36 AM 37.5440 22.1640 112° Southeast 540 621 37,000  Level FlightAware ADS-B
Tue 09:18:14 AM 37.5070 22.2750 113° Southeast 540 621 37,000  Level FlightAware ADS-B
Tue 09:18:58 AM 37.4700 22.3840 113° Southeast 539 620 37,000  Level FlightAware ADS-B
Tue 09:19:42 AM 37.4220 22.5280 113° Southeast 539 620 37,000  Level FlightAware ADS-B
Tue 09:20:18 AM 37.3870 22.6310 113° Southeast 537 618 37,000  Level FlightAware ADS-B
Tue 09:21:06 AM 37.3400 22.7700 113° Southeast 533 613 37,000  Level FlightAware ADS-B
Tue 09:21:50 AM 37.2970 22.8940 114° Southeast 533 613 37,000  Level FlightAware ADS-B
Tue 09:22:28 AM 37.2600 23.0010 113° Southeast 535 616 37,000  Level FlightAware ADS-B
Tue 09:23:10 AM 37.2180 23.1220 114° Southeast 537 618 37,000  Level FlightAware ADS-B
Tue 09:23:50 AM 37.1790 23.2360 113° Southeast 539 620 37,000  Level FlightAware ADS-B
Tue 09:24:34 AM 37.1350 23.3630 113° Southeast 541 623 37,000  Level FlightAware ADS-B
Tue 09:25:18 AM 37.0910 23.4910 113° Southeast 540 621 37,000  Level FlightAware ADS-B
Tue 09:25:57 AM 37.0520 23.6030 114° Southeast 539 620 37,000  Level FlightAware ADS-B
Tue 09:26:42 AM 37.0080 23.7280 114° Southeast 539 620 37,000  Level FlightAware ADS-B
Tue 09:27:26 AM 36.9630 23.8560 114° Southeast 539 620 37,000  Level FlightAware ADS-B
Tue 09:28:04 AM 36.9250 23.9660 113° Southeast 540 621 37,000  Level FlightAware ADS-B
Tue 09:28:47 AM 36.8820 24.0860 114° Southeast 539 620 37,000  Level FlightAware ADS-B
Tue 09:29:26 AM 36.8430 24.1940 114° Southeast 539 620 37,000  Level FlightAware ADS-B
Tue 09:30:06 AM 36.8240 24.2470 114° Southeast 539 620 37,000  Level FlightAware ADS-B
Tue 09:30:52 AM 36.7550 24.4390 114° Southeast 541 623 37,000  Level FlightAware ADS-B
Tue 09:31:37 AM 36.7100 24.5650 114° Southeast 542 624 37,000  Level FlightAware ADS-B
Tue 09:32:17 AM 36.6690 24.6810 114° Southeast 544 626 37,000  Level FlightAware ADS-B
Tue 09:33:01 AM 36.6230 24.8090 114° Southeast 544 626 37,000  Level FlightAware ADS-B
Tue 09:33:41 AM 36.5810 24.9250 114° Southeast 543 625 37,000  Level FlightAware ADS-B
Tue 09:34:26 AM 36.5350 25.0510 114° Southeast 542 624 37,000  Level FlightAware ADS-B
Tue 09:35:08 AM 36.4920 25.1700 114° Southeast 542 624 37,000  Level FlightAware ADS-B
Tue 09:35:49 AM 36.4480 25.2900 114° Southeast 543 625 37,000  Level FlightAware ADS-B
Tue 09:36:31 AM 36.4050 25.4080 114° Southeast 543 625 37,000  Level FlightAware ADS-B
Tue 09:37:09 AM 36.3650 25.5160 115° Southeast 544 626 37,000  Level FlightAware ADS-B
Tue 09:37:53 AM 36.3190 25.6400 115° Southeast 544 626 37,000  Level FlightAware ADS-B
Tue 09:38:37 AM 36.2720 25.7650 115° Southeast 544 626 37,000  Level FlightAware ADS-B
Tue 09:39:13 AM 36.2340 25.8660 115° Southeast 543 625 37,000  Level FlightAware ADS-B
Tue 09:40:02 AM 36.1830 26.0040 115° Southeast 545 627 37,000  Level FlightAware ADS-B
Tue 09:40:43 AM 36.1390 26.1200 115° Southeast 546 628 37,000  Level FlightAware ADS-B
Tue 09:41:23 AM 36.0960 26.2340 115° Southeast 548 631 37,000  Level FlightAware ADS-B
Tue 09:42:07 AM 36.0480 26.3590 115° Southeast 547 629 37,000  Level FlightAware ADS-B
Tue 09:42:49 AM 36.0030 26.4770 115° Southeast 548 631 37,000  Level FlightAware ADS-B
Tue 09:43:29 AM 35.9590 26.5920 115° Southeast 551 634 37,000  Level FlightAware ADS-B
Tue 09:44:11 AM 35.9140 26.7110 115° Southeast 555 639 37,000  Level FlightAware ADS-B
Tue 09:45:08 AM 35.8630 26.8430 115° Southeast 554 638 37,000  Level FlightAware ADS-B
Tue 09:45:49 AM 35.8070 26.9890 115° Southeast 558 642 37,000  Level FlightAware ADS-B
Tue 09:46:29 AM 35.7740 27.0750 115° Southeast 559 643 37,000  Level FlightAware ADS-B
Tue 09:47:10 AM 35.7290 27.1900 116° Southeast 562 647 37,000  Level FlightAware ADS-B
Tue 09:47:54 AM 35.6690 27.3460 115° Southeast 37,000  Level FlightAware ADS-B
Tue 09:48:34 AM 35.6220 27.4660 116° Southeast 562 647 37,000  Level FlightAware ADS-B
Tue 09:49:21 AM 35.5710 27.5980 115° Southeast 563 648 37,000  Level FlightAware ADS-B
Tue 09:49:58 AM 35.5360 27.6900 115° Southeast 563 648 37,000  Level FlightAware ADS-B
Tue 09:50:43 AM 35.4940 27.8000 115° Southeast 563 648 37,000  Level FlightAware ADS-B
Tue 09:51:57 AM 35.3920 28.0500 117° Southeast 565 650 37,000  Level FlightAware ADS-B
Tue 09:52:35 AM 35.3460 28.1640 116° Southeast 566 651 37,000  Level FlightAware ADS-B
Tue 09:53:18 AM 35.3000 28.2810 116° Southeast 565 650 37,000  Level FlightAware ADS-B
Tue 09:54:01 AM 35.2480 28.4100 116° Southeast 563 648 37,000  Level FlightAware ADS-B
Tue 09:54:43 AM 35.2000 28.5290 116° Southeast 563 648 37,000  Level FlightAware ADS-B
Tue 09:55:27 AM 35.1500 28.6540 116° Southeast 563 648 37,000  Level FlightAware ADS-B
Tue 09:56:19 AM 35.0940 28.7910 117° Southeast 560 644 37,000  Level FlightAware ADS-B
Tue 09:57:03 AM 35.0370 28.9300 117° Southeast 568 654 37,000  Level FlightAware ADS-B
Tue 09:57:43 AM 34.9910 29.0450 116° Southeast 570 656 37,000  Level FlightAware ADS-B
Tue 09:58:29 AM 34.9360 29.1780 117° Southeast 569 655 37,000  Level FlightAware ADS-B
Tue 09:59:09 AM 34.8890 29.2930 116° Southeast 569 655 37,000  Level FlightAware ADS-B
Tue 09:59:49 AM 34.8440 29.4020 117° Southeast 37,000  Level FlightAware ADS-B
Tue 10:00:39 AM 34.7890 29.5340 117° Southeast 572 658 37,000  Level FlightAware ADS-B
Tue 10:01:24 AM 34.7290 29.6790 117° Southeast 573 659 37,000  Level FlightAware ADS-B
Tue 10:02:05 AM 34.6820 29.7930 117° Southeast 572 658 37,000  Level FlightAware ADS-B
Tue 10:02:46 AM 34.6310 29.9130 117° Southeast 572 658 37,000  Level FlightAware ADS-B
Tue 10:03:28 AM 34.5870 30.0190 117° Southeast 571 657 37,000  Level FlightAware ADS-B
Tue 10:04:12 AM 34.5380 30.1350 117° Southeast 571 657 37,000  Level FlightAware ADS-B
Tue 10:04:47 AM 34.4800 30.2470 122° Southeast 561 646 37,000  Level FlightAware ADS-B
Tue 10:05:33 AM 34.4190 30.3740 120° Southeast 558 642 37,000  Level FlightAware ADS-B
Tue 10:06:08 AM 34.3720 30.4710 120° Southeast 559 643 37,000  Level FlightAware ADS-B
Tue 10:06:49 AM 34.3190 30.5800 120° Southeast 559 643 37,000  Level FlightAware ADS-B
Tue 10:07:34 AM 34.2570 30.7080 120° Southeast 559 643 37,000  Level FlightAware ADS-B
Tue 10:08:24 AM 34.2110 30.8030 120° Southeast 557 641 37,000  Level FlightAware ADS-B
Tue 10:09:09 AM 34.1350 30.9610 120° Southeast 555 639 37,000  Level FlightAware ADS-B
Tue 10:09:49 AM 34.0820 31.0700 120° Southeast 553 636 37,000  Level FlightAware ADS-B
Tue 10:10:59 AM 33.9910 31.2560 121° Southeast 550 633 37,000  Level FlightAware ADS-B
Tue 10:11:45 AM 33.9320 31.3780 120° Southeast 549 632 37,000  Level FlightAware ADS-B
Tue 10:12:24 AM 33.8930 31.4570 121° Southeast 549 632 37,000  Level FlightAware ADS-B
Tue 10:13:05 AM 33.8280 31.5890 121° Southeast 549 632 37,000  Level FlightAware ADS-B
Tue 10:13:51 AM 33.7670 31.7130 121° Southeast 548 631 37,000  Level FlightAware ADS-B
Tue 10:14:31 AM 33.7140 31.8190 121° Southeast 549 632 37,000  Level FlightAware ADS-B
Tue 10:15:09 AM 33.6670 31.9150 120° Southeast 551 634 37,000  Level FlightAware ADS-B
Tue 10:15:56 AM 33.6020 32.0440 121° Southeast 551 634 37,000  Level FlightAware ADS-B
Tue 10:16:32 AM 33.5540 32.1390 121° Southeast 554 638 37,000  Level FlightAware ADS-B
Tue 10:17:16 AM 33.4990 32.2480 121° Southeast 554 638 37,000  Level FlightAware ADS-B
Tue 10:18:02 AM 33.4350 32.3730 122° Southeast 553 636 37,000 -238 Level FlightAware ADS-B
Tue 10:18:57 AM 33.3610 32.5150 122° Southeast 540 621 36,600 -900 Descending FlightAware ADS-B
Tue 10:19:42 AM 33.3010 32.6310 122° Southeast 546 628 35,500 -1,500 Descending FlightAware ADS-B
Tue 10:20:37 AM 33.2300 32.7700 121° Southeast 535 616 34,100 -1,113 Descending FlightAware ADS-B
Tue 10:21:19 AM 33.1890 32.8550 120° Southeast 532 612 33,700 -2,231 Descending FlightAware ADS-B
Tue 10:21:55 AM 33.1370 32.9560 122° Southeast 517 595 31,200 -3,220 Descending FlightAware ADS-B
Tue 10:22:41 AM 33.0750 33.0810 121° Southeast 510 587 29,300 -2,386 Descending FlightAware ADS-B
Tue 10:23:23 AM 33.0250 33.1780 122° Southeast 497 572 27,700 -2,214 Descending FlightAware ADS-B
Tue 10:24:05 AM 32.9750 33.2760 121° Southeast 482 555 26,200 -2,138 Descending FlightAware ADS-B
Tue 10:24:50 AM 32.9240 33.3720 122° Southeast 463 533 24,600 -2,031 Descending FlightAware ADS-B
Tue 10:25:10 AM 32.9020 33.4150 121° Southeast 454 522 24,000 -1,967 Descending FlightAware ADS-B
Tue 10:25:51 AM 32.8580 33.5000 122° Southeast 439 505 22,600 -2,067 Descending FlightAware ADS-B
Tue 10:26:40 AM 32.8040 33.6020 122° Southeast 421 484 20,900 -1,958 Descending FlightAware ADS-B
Tue 10:27:26 AM 32.7580 33.6890 122° Southeast 406 467 19,500 -1,786 Descending FlightAware ADS-B
Tue 10:28:04 AM 32.7170 33.7600 124° Southeast 395 455 18,400 -1,636 Descending FlightAware ADS-B
Tue 10:28:43 AM 32.6730 33.8250 129° Southeast 379 436 17,400 -1,517 Descending FlightAware ADS-B
Tue 10:29:31 AM 32.6210 33.9030 128° Southeast 382 440 16,200 -1,500 Descending FlightAware ADS-B
Tue 10:30:11 AM 32.5790 33.9670 128° Southeast 384 442 15,200 -1,558 Descending FlightAware ADS-B
Tue 10:30:48 AM 32.5390 34.0310 127° Southeast 378 435 14,200 -1,500 Descending FlightAware ADS-B
Tue 10:31:31 AM 32.4960 34.1000 126° Southeast 373 429 13,200 -1,483 Descending FlightAware ADS-B
Tue 10:32:17 AM 32.4460 34.1760 128° Southeast 364 419 12,000 -1,483 Descending FlightAware ADS-B
Tue 10:33:00 AM 32.4030 34.2420 128° Southeast 349 402 11,000 -1,244 Descending FlightAware ADS-B
Tue 10:33:39 AM 32.3630 34.2990 130° Southeast 334 384 10,300 -1,143 Descending FlightAware ADS-B
Tue 10:34:03 AM 32.3420 34.3310 128° Southeast 327 376 9,800 -577 Descending FlightAware ADS-B
Tue 10:34:31 AM 32.3200 34.3640 128° Southeast 327 376 9,800  Level FlightAware ADS-B
Tue 10:35:07 AM 32.2910 34.4080 128° Southeast 327 376 9,800  Level FlightAware ADS-B
Tue 10:35:31 AM 32.2720 34.4360 129° Southeast 327 376 9,800  Level FlightAware ADS-B
Tue 10:35:43 AM 32.2630 34.4510 125° Southeast 327 376 9,800  Level FlightAware ADS-B
Tue 10:38:00 AM 32.0588 34.7614 115° Southeast  Level FlightAware Approximate
Tue 10:39:00 AM 32.0000 34.8667 125° Southeast  Level FlightAware Approximate
Tue 10:40:00 AM 32.0095 34.8769 125° Southeast  Level Estimated
Tue 10:41:00 AM 32.0095 34.8769 125° Southeast  Level Estimated
Tue 10:42:00 AM 32.0095 34.8769 125° Southeast  Level Estimated
Tue 10:43:00 AM 32.0095 34.8769 125° Southeast  Level Estimated
Tue 10:44:00 AM 32.0095 34.8769 125° Southeast  Level Estimated
Tue 10:45:00 AM 32.0095 34.8769 125° Southeast  Level Estimated
Tue 10:46:00 AM 32.0095 34.8769 125° Southeast  Level Estimated
Tue 10:47:00 AM 32.0095 34.8769 125° Southeast  Level Estimated

Login

Don't have an account? Register now (free) for customized features, flight alerts, and more!